createdAt,value
2023-05-04T00:01:41.208Z,97931.44
2023-05-04T00:04:10.600Z,97928.22
2023-05-04T00:06:38.759Z,97920.50
2023-05-04T00:09:07.184Z,97918.34
2023-05-04T00:11:35.236Z,97930.38
2023-05-04T00:14:03.137Z,97926.97
2023-05-04T00:16:31.230Z,97922.00
2023-05-04T00:18:58.981Z,97920.56
2023-05-04T00:21:28.153Z,97932.22
2023-05-04T00:23:55.877Z,97923.66
2023-05-04T00:26:23.638Z,97928.25
2023-05-04T00:28:51.339Z,97926.56
2023-05-04T00:31:19.632Z,97925.03
2023-05-04T00:33:47.480Z,97913.84
2023-05-04T00:36:15.248Z,97910.44
2023-05-04T00:38:51.306Z,97909.03
2023-05-04T00:41:20.633Z,97909.97
2023-05-04T00:43:48.838Z,97907.56
2023-05-04T00:46:17.000Z,97912.22
2023-05-04T00:48:48.072Z,97909.00
2023-05-04T00:51:16.760Z,97907.41
2023-05-04T00:53:44.552Z,97904.03
2023-05-04T00:56:13.930Z,97901.28
2023-05-04T00:58:41.638Z,97900.44
2023-05-04T01:01:09.654Z,97898.94
2023-05-04T01:03:37.436Z,97894.78
2023-05-04T01:06:13.664Z,97887.91
2023-05-04T01:08:44.948Z,97892.50
2023-05-04T01:11:19.822Z,97885.72
2023-05-04T01:13:48.153Z,97876.03
2023-05-04T01:16:16.056Z,97881.28
2023-05-04T01:18:43.884Z,97879.59
2023-05-04T01:21:11.623Z,97882.41
2023-05-04T01:23:40.727Z,97876.19
2023-05-04T01:26:12.345Z,97882.13
2023-05-04T01:28:43.530Z,97881.28
2023-05-04T01:31:17.178Z,97881.97
2023-05-04T01:33:45.957Z,97883.75
2023-05-04T01:36:13.811Z,97874.16
2023-05-04T01:38:43.299Z,97869.56
2023-05-04T01:41:11.047Z,97874.91
2023-05-04T01:43:38.778Z,97873.25
2023-05-04T01:46:06.667Z,97869.91
2023-05-04T01:48:34.485Z,97875.03
2023-05-04T01:51:02.290Z,97884.78
2023-05-04T01:53:30.627Z,97870.94
2023-05-04T01:55:59.745Z,97873.75
2023-05-04T01:58:27.520Z,97871.97
2023-05-04T02:00:55.434Z,97873.84
2023-05-04T02:03:23.236Z,97870.44
2023-05-04T02:05:51.172Z,97874.03
2023-05-04T02:08:18.918Z,97870.78
2023-05-04T02:10:46.847Z,97876.22
2023-05-04T02:13:16.218Z,97865.88
2023-05-04T02:15:44.008Z,97866.72
2023-05-04T02:18:11.922Z,97870.19
2023-05-04T02:20:39.908Z,97870.19
2023-05-04T02:23:07.634Z,97864.38
2023-05-04T02:25:35.415Z,97857.41
2023-05-04T02:28:03.138Z,97857.56
2023-05-04T02:30:32.254Z,97849.09
2023-05-04T02:33:00.027Z,97849.84
2023-05-04T02:35:27.808Z,97861.16
2023-05-04T02:37:55.547Z,97850.78
2023-05-04T02:40:23.329Z,97857.91
2023-05-04T02:42:51.104Z,97853.84
2023-05-04T02:45:19.046Z,97858.25
2023-05-04T02:47:48.300Z,97861.66
2023-05-04T02:50:16.113Z,97865.28
2023-05-04T02:52:43.849Z,97855.97
2023-05-04T02:55:11.656Z,97853.50
2023-05-04T02:57:39.443Z,97852.75
2023-05-04T03:00:08.633Z,97851.81
2023-05-04T03:02:36.452Z,97844.59
2023-05-04T03:05:06.495Z,97852.31
2023-05-04T03:07:34.280Z,97850.47
2023-05-04T03:10:02.086Z,97845.53
2023-05-04T03:12:30.114Z,97843.84
2023-05-04T03:14:57.995Z,97833.50
2023-05-04T03:17:25.834Z,97841.38
2023-05-04T03:19:53.588Z,97834.59
2023-05-04T03:22:22.748Z,97831.06
2023-05-04T03:24:50.537Z,97828.56
2023-05-04T03:27:18.287Z,97832.13
2023-05-04T03:29:46.065Z,97832.97
2023-05-04T03:32:14.176Z,97837.22
2023-05-04T03:34:41.988Z,97830.94
2023-05-04T03:37:09.767Z,97834.34
2023-05-04T03:39:38.870Z,97835.19
2023-05-04T03:42:06.716Z,97838.75
2023-05-04T03:44:34.501Z,97828.41
2023-05-04T03:47:02.272Z,97831.97
2023-05-04T03:49:29.993Z,97830.28
2023-05-04T03:51:57.809Z,97827.72
2023-05-04T03:54:26.356Z,97831.97
2023-05-04T03:56:55.509Z,97832.72
2023-05-04T03:59:23.244Z,97834.50
2023-05-04T04:01:51.320Z,97837.91
2023-05-04T04:04:19.156Z,97837.97
2023-05-04T04:06:47.102Z,97840.78
2023-05-04T04:09:14.921Z,97838.25
2023-05-04T04:11:42.780Z,97836.38
2023-05-04T04:14:12.335Z,97839.09
2023-05-04T04:16:40.243Z,97842.50
2023-05-04T04:19:08.165Z,97838.94
2023-05-04T04:21:35.980Z,97833.69
2023-05-04T04:24:03.794Z,97827.38
2023-05-04T04:26:31.633Z,97836.13
2023-05-04T04:28:59.389Z,97832.63
2023-05-04T04:31:28.654Z,97841.38
2023-05-04T04:33:56.502Z,97838.94
2023-05-04T04:36:24.755Z,97835.53
2023-05-04T04:38:52.518Z,97837.97
2023-05-04T04:41:20.336Z,97835.28
2023-05-04T04:43:48.115Z,97841.47
2023-05-04T04:46:16.043Z,97836.38
2023-05-04T04:48:45.146Z,97831.88
2023-05-04T04:51:13.188Z,97842.31
2023-05-04T04:53:40.935Z,97839.59
2023-05-04T04:56:09.710Z,97836.13
2023-05-04T04:58:37.586Z,97840.44
2023-05-04T05:01:06.147Z,97840.44
2023-05-04T05:03:33.937Z,97834.19
2023-05-04T05:06:04.087Z,97841.88
2023-05-04T05:08:33.784Z,97828.81
2023-05-04T05:11:01.595Z,97836.22
2023-05-04T05:13:29.385Z,97843.16
2023-05-04T05:15:57.359Z,97848.06
2023-05-04T05:18:25.162Z,97855.63
2023-05-04T05:20:52.922Z,97842.31
2023-05-04T05:23:22.088Z,97844.59
2023-05-04T05:25:49.883Z,97845.19
2023-05-04T05:28:17.701Z,97843.31
2023-05-04T05:30:45.629Z,97834.66
2023-05-04T05:33:13.872Z,97848.66
2023-05-04T05:35:41.764Z,97843.97
2023-05-04T05:38:09.536Z,97848.69
2023-05-04T05:40:39.060Z,97846.72
2023-05-04T05:43:06.910Z,97847.41
2023-05-04T05:45:34.686Z,97841.03
2023-05-04T05:48:02.629Z,97846.69
2023-05-04T05:50:30.555Z,97843.28
2023-05-04T05:52:58.357Z,97848.19
2023-05-04T05:55:26.220Z,97847.09
2023-05-04T05:57:55.403Z,97850.50
2023-05-04T06:00:23.307Z,97847.41
2023-05-04T06:02:51.576Z,97846.59
2023-05-04T06:05:19.439Z,97842.09
2023-05-04T06:07:47.277Z,97856.13
2023-05-04T06:10:15.321Z,97852.19
2023-05-04T06:12:43.201Z,97851.50
2023-05-04T06:15:14.387Z,97847.94
2023-05-04T06:17:42.373Z,97853.03
2023-05-04T06:20:11.022Z,97853.81
2023-05-04T06:22:38.876Z,97850.19
2023-05-04T06:25:08.331Z,97842.13
2023-05-04T06:27:36.412Z,97832.06
2023-05-04T06:30:04.742Z,97853.78
2023-05-04T06:32:34.184Z,97856.41
2023-05-04T06:35:02.717Z,97857.09
2023-05-04T06:37:30.875Z,97853.59
2023-05-04T06:39:58.713Z,97859.63
2023-05-04T06:42:30.053Z,97858.75
2023-05-04T06:44:58.493Z,97850.53
2023-05-04T06:47:26.355Z,97848.34
2023-05-04T06:49:55.485Z,97843.31
2023-05-04T06:52:23.345Z,97838.03
2023-05-04T06:54:51.125Z,97837.66
2023-05-04T06:57:18.936Z,97835.53
2023-05-04T06:59:46.736Z,97838.19
2023-05-04T07:02:14.559Z,97844.69
2023-05-04T07:04:42.779Z,97840.91
2023-05-04T07:07:12.004Z,97844.72
2023-05-04T07:09:39.871Z,97843.72
2023-05-04T07:12:07.954Z,97838.03
2023-05-04T07:14:35.757Z,97826.63
2023-05-04T07:17:03.515Z,97840.78
2023-05-04T07:19:31.344Z,97843.34
2023-05-04T07:22:00.315Z,97841.44
2023-05-04T07:24:31.805Z,97835.41
2023-05-04T07:26:59.627Z,97817.94
2023-05-04T07:29:27.521Z,97832.22
2023-05-04T07:31:55.530Z,97832.34
2023-05-04T07:34:30.547Z,97834.88
2023-05-04T07:37:01.982Z,97832.25
2023-05-04T07:39:31.119Z,97834.16
2023-05-04T07:41:58.914Z,97838.38
2023-05-04T07:44:26.711Z,97836.03
2023-05-04T07:46:54.520Z,97844.38
2023-05-04T07:49:22.343Z,97837.84
2023-05-04T07:51:50.194Z,97840.59
2023-05-04T07:54:18.880Z,97841.00
2023-05-04T07:56:49.010Z,97844.28
2023-05-04T07:59:18.788Z,97849.53
2023-05-04T08:01:50.077Z,97837.63
2023-05-04T08:04:17.920Z,97836.78
2023-05-04T08:06:46.554Z,97834.19
2023-05-04T08:09:14.383Z,97824.16
2023-05-04T08:11:42.354Z,97824.63
2023-05-04T08:14:11.635Z,97820.53
2023-05-04T08:16:39.791Z,97817.16
2023-05-04T08:19:07.577Z,97818.88
2023-05-04T08:21:35.379Z,97806.25
2023-05-04T08:24:04.314Z,97823.34
2023-05-04T08:26:32.351Z,97810.75
2023-05-04T08:29:07.712Z,97806.81
2023-05-04T08:31:37.807Z,97804.78
2023-05-04T08:34:05.656Z,97813.00
2023-05-04T08:36:33.501Z,97806.59
2023-05-04T08:39:01.488Z,97812.63
2023-05-04T08:41:29.362Z,97808.88
2023-05-04T08:43:57.553Z,97800.53
2023-05-04T08:46:25.814Z,97797.03
2023-05-04T08:48:55.059Z,97801.84
2023-05-04T08:51:23.185Z,97807.66
2023-05-04T08:53:51.903Z,97802.56
2023-05-04T08:56:20.180Z,97798.06
2023-05-04T08:58:51.028Z,97795.81
2023-05-04T09:01:19.868Z,97790.84
2023-05-04T09:03:49.000Z,97798.25
2023-05-04T09:06:19.484Z,97794.44
2023-05-04T09:08:47.555Z,97800.47
2023-05-04T09:11:15.292Z,97798.56
2023-05-04T09:13:43.875Z,97803.66
2023-05-04T09:16:14.048Z,97797.47
2023-05-04T09:18:44.440Z,97802.59
2023-05-04T09:21:12.517Z,97799.38
2023-05-04T09:23:48.787Z,97810.56
2023-05-04T09:26:16.635Z,97795.34
2023-05-04T09:28:45.183Z,97797.72
2023-05-04T09:31:13.062Z,97793.75
2023-05-04T09:33:41.652Z,97798.16
2023-05-04T09:36:17.087Z,97792.47
2023-05-04T09:38:45.277Z,97794.63
2023-05-04T09:41:14.531Z,97784.59
2023-05-04T09:43:43.172Z,97786.56
2023-05-04T09:46:17.388Z,97782.75
2023-05-04T09:48:52.748Z,97783.88
2023-05-04T09:51:22.570Z,97779.97
2023-05-04T09:53:51.121Z,97785.44
2023-05-04T09:56:27.955Z,97774.50
2023-05-04T09:58:58.704Z,97774.34
2023-05-04T10:01:29.060Z,97782.38
2023-05-04T10:03:57.021Z,97770.03
2023-05-04T10:06:25.206Z,97765.53
2023-05-04T10:08:53.298Z,97763.53
2023-05-04T10:11:25.758Z,97771.50
2023-05-04T10:13:56.266Z,97779.41
2023-05-04T10:16:34.802Z,97780.00
2023-05-04T10:19:13.106Z,97771.25
2023-05-04T10:21:50.026Z,97765.19
2023-05-04T10:24:34.201Z,97758.97
2023-05-04T10:27:10.676Z,97759.16
2023-05-04T10:29:38.651Z,97754.06
2023-05-04T10:32:07.955Z,97746.00
2023-05-04T10:34:36.869Z,97721.66
2023-05-04T10:37:04.904Z,97743.59
2023-05-04T10:39:33.640Z,97737.28
2023-05-04T10:42:04.038Z,97725.13
2023-05-04T10:44:34.256Z,97723.19
2023-05-04T10:47:03.781Z,97722.09
2023-05-04T10:49:31.561Z,97724.97
2023-05-04T10:52:09.927Z,97716.16
2023-05-04T10:54:38.131Z,97710.69
2023-05-04T10:57:07.192Z,97697.69
2023-05-04T10:59:37.023Z,97695.84
2023-05-04T11:02:06.729Z,97700.69
2023-05-04T11:04:35.001Z,97692.50
2023-05-04T11:07:05.100Z,97683.50
2023-05-04T11:09:37.807Z,97684.69
2023-05-04T11:12:06.175Z,97679.25
2023-05-04T11:14:37.720Z,97674.81
2023-05-04T11:17:26.578Z,97673.59
2023-05-04T11:19:55.141Z,97669.09
2023-05-04T11:22:24.129Z,97671.69
2023-05-04T11:24:52.849Z,97655.81
2023-05-04T11:27:23.454Z,97660.69
2023-05-04T11:29:58.056Z,97654.06
2023-05-04T11:32:37.330Z,97657.47
2023-05-04T11:35:06.817Z,97645.44
2023-05-04T11:37:39.388Z,97661.09
2023-05-04T11:40:10.842Z,97664.63
2023-05-04T11:42:39.928Z,97653.97
2023-05-04T11:45:09.818Z,97653.03
2023-05-04T11:47:39.419Z,97645.34
2023-05-04T11:50:08.913Z,97634.53
2023-05-04T11:52:36.945Z,97640.78
2023-05-04T11:55:05.226Z,97650.66
2023-05-04T11:57:33.251Z,97652.16
2023-05-04T12:00:01.028Z,97645.34
2023-05-04T12:02:28.877Z,97642.19
2023-05-04T12:04:58.073Z,97639.50
2023-05-04T12:07:26.180Z,97629.56
2023-05-04T12:09:53.998Z,97597.53
2023-05-04T12:12:22.333Z,97621.50
2023-05-04T12:14:51.275Z,97615.06
2023-05-04T12:17:20.359Z,97622.19
2023-05-04T12:19:49.150Z,97619.53
2023-05-04T12:22:18.492Z,97617.16
2023-05-04T12:24:46.294Z,97614.13
2023-05-04T12:27:14.748Z,97612.47
2023-05-04T12:29:42.515Z,97627.22
2023-05-04T12:32:10.439Z,97621.03
2023-05-04T12:34:38.474Z,97619.00
2023-05-04T12:37:06.340Z,97630.28
2023-05-04T12:39:35.549Z,97616.50
2023-05-04T12:42:04.268Z,97614.34
2023-05-04T12:44:33.365Z,97615.13
2023-05-04T12:47:01.211Z,97607.09
2023-05-04T12:49:28.993Z,97598.94
2023-05-04T12:51:58.173Z,97600.28
2023-05-04T12:54:26.040Z,97604.69
2023-05-04T12:56:55.289Z,97593.44
2023-05-04T12:59:23.557Z,97587.47
2023-05-04T13:01:51.459Z,97585.13
2023-05-04T13:04:19.673Z,97586.41
2023-05-04T13:06:48.461Z,97584.88
2023-05-04T13:09:16.490Z,97584.50
2023-05-04T13:11:44.721Z,97580.97
2023-05-04T13:14:14.571Z,97575.56
2023-05-04T13:16:42.362Z,97559.88
2023-05-04T13:19:10.146Z,97569.13
2023-05-04T13:21:37.872Z,97569.94
2023-05-04T13:24:06.412Z,97562.53
2023-05-04T13:26:34.204Z,97543.88
2023-05-04T13:29:03.514Z,97547.03
2023-05-04T13:31:32.867Z,97528.66
2023-05-04T13:34:00.699Z,97541.22
2023-05-04T13:36:28.451Z,97540.19
2023-05-04T13:38:56.222Z,97538.38
2023-05-04T13:41:24.570Z,97542.88
2023-05-04T13:43:52.353Z,97529.03
2023-05-04T13:46:20.232Z,97536.78
2023-05-04T13:48:49.388Z,97530.34
2023-05-04T13:51:17.232Z,97524.66
2023-05-04T13:53:44.959Z,97518.34
2023-05-04T13:56:12.731Z,97514.22
2023-05-04T13:58:40.513Z,97513.88
2023-05-04T14:01:08.366Z,97512.50
2023-05-04T14:03:36.126Z,97497.69
2023-05-04T14:06:05.545Z,97503.31
2023-05-04T14:08:33.310Z,97488.72
2023-05-04T14:11:01.099Z,97498.75
2023-05-04T14:13:28.880Z,97493.66
2023-05-04T14:15:58.358Z,97483.13
2023-05-04T14:18:26.677Z,97495.44
2023-05-04T14:20:54.440Z,97476.06
2023-05-04T14:23:23.535Z,97472.63
2023-05-04T14:25:51.788Z,97472.56
2023-05-04T14:28:19.715Z,97495.91
2023-05-04T14:30:47.510Z,97468.78
2023-05-04T14:33:15.308Z,97470.13
2023-05-04T14:35:43.888Z,97463.53
2023-05-04T14:38:12.524Z,97465.31
2023-05-04T14:40:41.641Z,97463.81
2023-05-04T14:43:09.405Z,97463.66
2023-05-04T14:45:37.605Z,97472.25
2023-05-04T14:48:05.955Z,97461.97
2023-05-04T14:50:33.776Z,97464.47
2023-05-04T14:53:01.633Z,97465.56
2023-05-04T14:55:29.450Z,97463.53
2023-05-04T14:57:58.547Z,97472.03
2023-05-04T15:00:26.441Z,97464.59
2023-05-04T15:02:54.262Z,97461.63
2023-05-04T15:05:22.125Z,97451.88
2023-05-04T15:07:49.915Z,97449.97
2023-05-04T15:10:17.730Z,97455.31
2023-05-04T15:12:45.848Z,97445.59
2023-05-04T15:15:15.290Z,97437.78
2023-05-04T15:17:43.111Z,97435.97
2023-05-04T15:20:11.832Z,97431.63
2023-05-04T15:22:39.622Z,97431.41
2023-05-04T15:25:08.846Z,97420.56
2023-05-04T15:27:37.971Z,97429.00
2023-05-04T15:30:07.681Z,97423.16
2023-05-04T15:32:36.924Z,97421.50
2023-05-04T15:35:06.338Z,97423.09
2023-05-04T15:37:34.490Z,97415.03
2023-05-04T15:40:02.836Z,97405.94
2023-05-04T15:42:30.790Z,97405.31
2023-05-04T15:44:58.649Z,97405.66
2023-05-04T15:47:26.948Z,97394.25
2023-05-04T15:49:56.176Z,97391.94
2023-05-04T15:52:23.908Z,97380.91
2023-05-04T15:54:51.719Z,97380.13
2023-05-04T15:57:19.480Z,97395.22
2023-05-04T15:59:47.733Z,97387.97
2023-05-04T16:02:15.650Z,97383.25
2023-05-04T16:04:43.417Z,97379.63
2023-05-04T16:07:12.550Z,97399.06
2023-05-04T16:09:40.428Z,97389.56
2023-05-04T16:12:08.749Z,97382.75
2023-05-04T16:14:37.044Z,97393.19
2023-05-04T16:17:04.945Z,97388.28
2023-05-04T16:19:32.874Z,97383.63
2023-05-04T16:22:01.302Z,97376.13
2023-05-04T16:24:30.464Z,97367.84
2023-05-04T16:26:58.249Z,97361.94
2023-05-04T16:29:25.996Z,97359.53
2023-05-04T16:31:53.793Z,97361.22
2023-05-04T16:34:21.542Z,97356.25
2023-05-04T16:36:49.341Z,97357.66
2023-05-04T16:39:18.753Z,97355.19
2023-05-04T16:41:48.410Z,97353.44
2023-05-04T16:44:16.553Z,97348.19
2023-05-04T16:46:44.467Z,97354.03
2023-05-04T16:49:14.667Z,97353.34
2023-05-04T16:51:43.415Z,97348.66
2023-05-04T16:54:11.358Z,97353.69
2023-05-04T16:56:39.177Z,97352.84
2023-05-04T16:59:08.434Z,97350.56
2023-05-04T17:01:36.278Z,97352.13
2023-05-04T17:04:04.222Z,97353.88
2023-05-04T17:06:32.251Z,97347.47
2023-05-04T17:09:00.161Z,97352.84
2023-05-04T17:11:27.955Z,97347.03
2023-05-04T17:13:56.191Z,97341.09
2023-05-04T17:16:25.396Z,97337.94
2023-05-04T17:18:53.182Z,97345.56
2023-05-04T17:21:20.934Z,97342.84
2023-05-04T17:23:48.690Z,97340.88
2023-05-04T17:26:16.485Z,97338.47
2023-05-04T17:28:44.395Z,97342.59
2023-05-04T17:31:12.751Z,97344.31
2023-05-04T17:33:41.967Z,97340.84
2023-05-04T17:36:12.310Z,97340.19
2023-05-04T17:38:40.338Z,97337.97
2023-05-04T17:41:09.832Z,97329.06
2023-05-04T17:43:38.162Z,97338.13
2023-05-04T17:46:06.641Z,97349.78
2023-05-04T17:48:36.348Z,97331.19
2023-05-04T17:51:08.717Z,97337.06
2023-05-04T17:53:36.783Z,97327.72
2023-05-04T17:56:04.975Z,97338.38
2023-05-04T17:58:32.735Z,97350.00
2023-05-04T18:01:00.512Z,97338.78
2023-05-04T18:03:28.345Z,97352.50
2023-05-04T18:05:56.128Z,97360.69
2023-05-04T18:08:25.332Z,97363.91
2023-05-04T18:10:53.317Z,97360.22
2023-05-04T18:13:21.167Z,97365.56
2023-05-04T18:15:49.097Z,97365.22
2023-05-04T18:18:16.939Z,97368.44
2023-05-04T18:20:44.709Z,97372.25
2023-05-04T18:23:12.516Z,97372.25
2023-05-04T18:25:41.692Z,97377.66
2023-05-04T18:28:09.451Z,97378.97
2023-05-04T18:30:37.611Z,97379.34
2023-05-04T18:33:05.619Z,97372.13
2023-05-04T18:35:33.637Z,97382.00
2023-05-04T18:38:01.512Z,97377.66
2023-05-04T18:40:29.463Z,97389.50
2023-05-04T18:42:58.664Z,97386.28
2023-05-04T18:45:26.786Z,97391.59
2023-05-04T18:47:54.635Z,97390.75
2023-05-04T18:50:22.473Z,97386.06
2023-05-04T18:52:50.271Z,97381.16
2023-05-04T18:55:18.086Z,97391.84
2023-05-04T18:57:45.973Z,97398.81
2023-05-04T19:00:15.730Z,97395.13
2023-05-04T19:02:43.511Z,97400.94
2023-05-04T19:05:13.037Z,97396.56
2023-05-04T19:07:42.383Z,97402.00
2023-05-04T19:10:10.871Z,97405.47
2023-05-04T19:12:38.671Z,97398.88
2023-05-04T19:15:07.713Z,97399.72
2023-05-04T19:17:37.117Z,97404.31
2023-05-04T19:20:05.876Z,97405.78
2023-05-04T19:22:33.874Z,97404.34
2023-05-04T19:25:01.660Z,97405.66
2023-05-04T19:27:29.526Z,97403.44
2023-05-04T19:29:57.298Z,97401.84
2023-05-04T19:32:28.581Z,97412.47
2023-05-04T19:34:57.990Z,97410.41
2023-05-04T19:37:25.760Z,97409.31
2023-05-04T19:39:53.531Z,97410.47
2023-05-04T19:42:21.351Z,97401.69
2023-05-04T19:44:49.309Z,97405.75
2023-05-04T19:47:17.199Z,97413.91
2023-05-04T19:49:47.514Z,97408.00
2023-05-04T19:52:16.842Z,97406.34
2023-05-04T19:54:48.264Z,97404.44
2023-05-04T19:57:16.076Z,97402.38
2023-05-04T19:59:45.463Z,97409.00
2023-05-04T20:02:14.894Z,97417.47
2023-05-04T20:04:42.743Z,97418.91
2023-05-04T20:07:10.526Z,97409.38
2023-05-04T20:09:39.907Z,97419.78
2023-05-04T20:12:08.284Z,97412.53
2023-05-04T20:14:36.241Z,97412.00
2023-05-04T20:17:04.466Z,97408.41
2023-05-04T20:19:32.397Z,97403.81
2023-05-04T20:22:00.152Z,97410.41
2023-05-04T20:24:27.938Z,97410.72
2023-05-04T20:26:58.353Z,97400.91
2023-05-04T20:29:26.617Z,97404.03
2023-05-04T20:31:54.526Z,97404.28
2023-05-04T20:34:22.553Z,97409.09
2023-05-04T20:36:50.587Z,97404.34
2023-05-04T20:39:20.041Z,97406.19
2023-05-04T20:41:49.739Z,97404.63
2023-05-04T20:44:19.147Z,97396.38
2023-05-04T20:46:47.209Z,97399.38
2023-05-04T20:49:15.233Z,97405.25
2023-05-04T20:51:43.212Z,97403.41
2023-05-04T20:54:11.691Z,97402.88
2023-05-04T20:56:39.713Z,97399.66
2023-05-04T20:59:08.214Z,97402.50
2023-05-04T21:01:39.260Z,97391.28
2023-05-04T21:04:07.656Z,97379.81
2023-05-04T21:06:35.501Z,97392.97
2023-05-04T21:09:04.364Z,97391.44
2023-05-04T21:11:32.499Z,97386.00
2023-05-04T21:14:00.360Z,97390.75
2023-05-04T21:16:28.253Z,97384.06
2023-05-04T21:18:57.748Z,97387.56
2023-05-04T21:21:25.625Z,97388.81
2023-05-04T21:23:53.382Z,97391.06
2023-05-04T21:26:22.037Z,97396.94
2023-05-04T21:28:50.917Z,97391.94
2023-05-04T21:31:18.870Z,97393.44
2023-05-04T21:33:47.276Z,97380.00
2023-05-04T21:36:16.943Z,97391.31
2023-05-04T21:38:44.755Z,97385.72
2023-05-04T21:41:13.672Z,97381.56
2023-05-04T21:43:41.728Z,97378.44
2023-05-04T21:46:09.866Z,97384.91
2023-05-04T21:48:37.649Z,97391.34
2023-05-04T21:51:05.857Z,97389.09
2023-05-04T21:53:35.288Z,97377.63
2023-05-04T21:56:07.534Z,97381.56
2023-05-04T21:58:37.134Z,97383.50
2023-05-04T22:01:05.729Z,97371.44
2023-05-04T22:03:33.688Z,97373.44
2023-05-04T22:06:01.558Z,97376.34
2023-05-04T22:08:30.288Z,97374.00
2023-05-04T22:10:59.748Z,97373.16
2023-05-04T22:13:27.873Z,97368.94
2023-05-04T22:15:56.197Z,97355.78
2023-05-04T22:18:24.600Z,97369.66
2023-05-04T22:20:52.668Z,97371.47
2023-05-04T22:23:20.434Z,97371.47
2023-05-04T22:25:48.458Z,97367.25
2023-05-04T22:28:17.826Z,97367.97
2023-05-04T22:30:46.602Z,97367.25
2023-05-04T22:33:14.587Z,97363.75
2023-05-04T22:35:42.636Z,97368.09
2023-05-04T22:38:10.998Z,97367.25
2023-05-04T22:40:40.437Z,97359.16
2023-05-04T22:43:08.573Z,97365.56
2023-05-04T22:45:38.902Z,97369.91
2023-05-04T22:48:06.777Z,97368.94
2023-05-04T22:50:34.583Z,97372.31
2023-05-04T22:53:02.618Z,97369.53
2023-05-04T22:55:30.410Z,97368.38
2023-05-04T22:57:58.231Z,97374.41
2023-05-04T23:00:26.142Z,97366.44
2023-05-04T23:02:55.380Z,97380.69
2023-05-04T23:05:23.378Z,97365.84
2023-05-04T23:07:51.306Z,97376.34
2023-05-04T23:10:19.189Z,97367.00
2023-05-04T23:12:47.363Z,97373.16
2023-05-04T23:15:15.258Z,97375.94
2023-05-04T23:17:43.033Z,97379.56
2023-05-04T23:20:13.400Z,97372.56
2023-05-04T23:22:41.348Z,97375.34
2023-05-04T23:25:09.811Z,97374.50
2023-05-04T23:27:37.814Z,97373.72
2023-05-04T23:30:07.229Z,97370.34
2023-05-04T23:32:35.222Z,97375.66
2023-05-04T23:35:03.225Z,97362.63
2023-05-04T23:37:32.830Z,97366.41
2023-05-04T23:40:00.717Z,97361.38
2023-05-04T23:42:28.501Z,97372.00
2023-05-04T23:44:56.636Z,97368.38
2023-05-04T23:47:24.537Z,97364.03
2023-05-04T23:49:52.421Z,97366.69
2023-05-04T23:52:20.174Z,97374.66
2023-05-04T23:54:53.779Z,97369.47
2023-05-04T23:57:21.739Z,97366.97
2023-05-04T23:59:49.548Z,97372.56
